sensor_id;sensor_type;location;lat;lon;timestamp;P1;P2;P0
45112;PMS5003;30873;53.908;27.576;2023-04-27T00:01:28;3;3;1.4
45112;PMS5003;30873;53.908;27.576;2023-04-27T00:06:07;4.3;3.3;1.7
45112;PMS5003;30873;53.908;27.576;2023-04-27T00:11:44;4.2;3.1;1.4
45112;PMS5003;30873;53.908;27.576;2023-04-27T00:16:30;3.1;2.7;1.5
45112;PMS5003;30873;53.908;27.576;2023-04-27T00:21:56;4.3;3.6;1.9
45112;PMS5003;30873;53.908;27.576;2023-04-27T00:26:40;6;4.8;2.6
45112;PMS5003;30873;53.908;27.576;2023-04-27T00:31:56;5.1;4.6;2.4
45112;PMS5003;30873;53.908;27.576;2023-04-27T00:36:28;5.6;4.6;2.1
45112;PMS5003;30873;53.908;27.576;2023-04-27T00:41:59;5;4.7;2.7
45112;PMS5003;30873;53.908;27.576;2023-04-27T00:46:16;5.7;5.3;3.2
45112;PMS5003;30873;53.908;27.576;2023-04-27T00:51:45;7.6;6.4;3.5
45112;PMS5003;30873;53.908;27.576;2023-04-27T00:56:34;7.1;6.2;3.7
45112;PMS5003;30873;53.908;27.576;2023-04-27T01:01:18;7.3;5.3;3.4
45112;PMS5003;30873;53.908;27.576;2023-04-27T01:06:42;8.5;6.9;4.3
45112;PMS5003;30873;53.908;27.576;2023-04-27T01:11:18;8.9;7.4;4.8
45112;PMS5003;30873;53.908;27.576;2023-04-27T01:16:18;9.4;7.4;4.7
45112;PMS5003;30873;53.908;27.576;2023-04-27T01:21:58;9.4;7.9;4.9
45112;PMS5003;30873;53.908;27.576;2023-04-27T01:26:58;9.1;7.6;4.8
45112;PMS5003;30873;53.908;27.576;2023-04-27T01:31:07;10.2;8.7;5.3
45112;PMS5003;30873;53.908;27.576;2023-04-27T01:36:42;9.8;8.2;5.4
45112;PMS5003;30873;53.908;27.576;2023-04-27T01:41:44;10.1;8.6;5.2
45112;PMS5003;30873;53.908;27.576;2023-04-27T01:46:18;10.3;8.2;4.9
45112;PMS5003;30873;53.908;27.576;2023-04-27T01:51:18;9.8;9;5.6
45112;PMS5003;30873;53.908;27.576;2023-04-27T01:56:42;9.9;8.2;5
45112;PMS5003;30873;53.908;27.576;2023-04-27T02:01:58;11.1;8.7;5.2
45112;PMS5003;30873;53.908;27.576;2023-04-27T02:06:56;11.3;8.7;5.1
45112;PMS5003;30873;53.908;27.576;2023-04-27T02:11:06;9.1;8.7;5.1
45112;PMS5003;30873;53.908;27.576;2023-04-27T02:16:59;10.3;8.3;5
45112;PMS5003;30873;53.908;27.576;2023-04-27T02:21:32;10;9.5;5.6
45112;PMS5003;30873;53.908;27.576;2023-04-27T02:26:19;11;9.4;5.3
45112;PMS5003;30873;53.908;27.576;2023-04-27T02:31:06;10.3;9;5.5
45112;PMS5003;30873;53.908;27.576;2023-04-27T02:36:42;10;9.1;5.1
45112;PMS5003;30873;53.908;27.576;2023-04-27T02:41:06;8.7;8;4.7
45112;PMS5003;30873;53.908;27.576;2023-04-27T02:46:44;8.5;7;4.6
45112;PMS5003;30873;53.908;27.576;2023-04-27T02:51:56;9.1;7.3;4.6
45112;PMS5003;30873;53.908;27.576;2023-04-27T02:56:30;8.3;7.4;4.6
45112;PMS5003;30873;53.908;27.576;2023-04-27T03:01:58;9.2;7.1;4.6
45112;PMS5003;30873;53.908;27.576;2023-04-27T03:06:30;9.1;8.2;4.6
45112;PMS5003;30873;53.908;27.576;2023-04-27T03:11:16;8.8;7.7;4.1
45112;PMS5003;30873;53.908;27.576;2023-04-27T03:16:46;7;6.1;3.5
45112;PMS5003;30873;53.908;27.576;2023-04-27T03:21:30;7.2;6.5;4.2
45112;PMS5003;30873;53.908;27.576;2023-04-27T03:26:07;7.5;6.1;4
45112;PMS5003;30873;53.908;27.576;2023-04-27T03:31:43;7.4;6.5;4.2
45112;PMS5003;30873;53.908;27.576;2023-04-27T03:36:57;7.5;6.4;4.5
45112;PMS5003;30873;53.908;27.576;2023-04-27T03:41:07;6.7;5.8;4.2
45112;PMS5003;30873;53.908;27.576;2023-04-27T03:46:29;8.9;7;4.6
45112;PMS5003;30873;53.908;27.576;2023-04-27T03:51:59;7.4;6.7;3.9
45112;PMS5003;30873;53.908;27.576;2023-04-27T03:56:57;9.4;8.1;5.1
45112;PMS5003;30873;53.908;27.576;2023-04-27T04:01:31;7.7;6.7;4.8
45112;PMS5003;30873;53.908;27.576;2023-04-27T04:06:16;10.5;8.8;5.3
45112;PMS5003;30873;53.908;27.576;2023-04-27T04:11:59;8;7.5;4.8
45112;PMS5003;30873;53.908;27.576;2023-04-27T04:16:33;9.4;8.1;4.8
45112;PMS5003;30873;53.908;27.576;2023-04-27T04:21:19;9.7;8.1;5.3
45112;PMS5003;30873;53.908;27.576;2023-04-27T04:26:59;9.9;8.2;4.8
45112;PMS5003;30873;53.908;27.576;2023-04-27T04:31:57;7;6.7;4.2
45112;PMS5003;30873;53.908;27.576;2023-04-27T04:36:19;10.2;7.6;5
45112;PMS5003;30873;53.908;27.576;2023-04-27T04:41:41;9.4;7.6;4.9
45112;PMS5003;30873;53.908;27.576;2023-04-27T04:46:47;10.1;8.3;5.8
45112;PMS5003;30873;53.908;27.576;2023-04-27T04:51:07;10.4;8.2;5.6
45112;PMS5003;30873;53.908;27.576;2023-04-27T04:56:41;8.8;8.2;5.4
45112;PMS5003;30873;53.908;27.576;2023-04-27T05:01:43;10.8;9.7;5.5
45112;PMS5003;30873;53.908;27.576;2023-04-27T05:06:57;12.4;10.6;6.9
45112;PMS5003;30873;53.908;27.576;2023-04-27T05:11:57;26.1;24.8;19.5
45112;PMS5003;30873;53.908;27.576;2023-04-27T05:16:47;10.8;9.5;7
45112;PMS5003;30873;53.908;27.576;2023-04-27T05:21:55;9.6;8.2;5.9
45112;PMS5003;30873;53.908;27.576;2023-04-27T05:26:47;10.9;9.8;6.6
45112;PMS5003;30873;53.908;27.576;2023-04-27T05:31:33;20.8;19.2;16.1
45112;PMS5003;30873;53.908;27.576;2023-04-27T05:36:17;39.8;36.5;30.4
45112;PMS5003;30873;53.908;27.576;2023-04-27T05:41:41;37.3;35.4;28.7
45112;PMS5003;30873;53.908;27.576;2023-04-27T05:46:33;44.7;41.9;34.6
45112;PMS5003;30873;53.908;27.576;2023-04-27T05:51:43;43;41.1;33.5
45112;PMS5003;30873;53.908;27.576;2023-04-27T05:56:55;39.2;37.1;29.4
45112;PMS5003;30873;53.908;27.576;2023-04-27T06:01:29;30.1;28;25.1
45112;PMS5003;30873;53.908;27.576;2023-04-27T06:06:55;27.1;25.5;21.5
45112;PMS5003;30873;53.908;27.576;2023-04-27T06:11:45;15.1;13.2;9.9
45112;PMS5003;30873;53.908;27.576;2023-04-27T06:16:17;11.8;9.9;6.5
45112;PMS5003;30873;53.908;27.576;2023-04-27T06:21:47;10;8.8;5.8
45112;PMS5003;30873;53.908;27.576;2023-04-27T06:26:31;10.7;9;6.1
45112;PMS5003;30873;53.908;27.576;2023-04-27T06:31:07;9.1;7.4;4.4
45112;PMS5003;30873;53.908;27.576;2023-04-27T06:36:41;8.9;7.8;4.8
45112;PMS5003;30873;53.908;27.576;2023-04-27T06:41:59;8.7;7.8;4.8
45112;PMS5003;30873;53.908;27.576;2023-04-27T06:46:17;8.1;7.6;5.1
45112;PMS5003;30873;53.908;27.576;2023-04-27T06:51:31;8.8;7.8;5.3
45112;PMS5003;30873;53.908;27.576;2023-04-27T06:56:43;9.4;7.6;5.3
45112;PMS5003;30873;53.908;27.576;2023-04-27T07:01:57;9.5;8.6;5.9
45112;PMS5003;30873;53.908;27.576;2023-04-27T07:06:29;9.5;7.9;5.6
45112;PMS5003;30873;53.908;27.576;2023-04-27T07:11:07;8.7;7.8;4.9
45112;PMS5003;30873;53.908;27.576;2023-04-27T07:16:57;9.5;7.6;4.8
45112;PMS5003;30873;53.908;27.576;2023-04-27T07:21:47;9.6;8.5;5.9
45112;PMS5003;30873;53.908;27.576;2023-04-27T07:26:19;9;7.6;5.3
45112;PMS5003;30873;53.908;27.576;2023-04-27T07:31:27;9.8;8.2;5.2
45112;PMS5003;30873;53.908;27.576;2023-04-27T07:36:57;10.9;8.8;5.9
45112;PMS5003;30873;53.908;27.576;2023-04-27T07:41:07;11.6;10;7.3
45112;PMS5003;30873;53.908;27.576;2023-04-27T07:46:43;8.1;7.3;4.5
45112;PMS5003;30873;53.908;27.576;2023-04-27T07:51:57;7.6;7;4.3
45112;PMS5003;30873;53.908;27.576;2023-04-27T07:56:29;7.3;6.1;3.7
45112;PMS5003;30873;53.908;27.576;2023-04-27T08:01:07;9;7.6;5.3
45112;PMS5003;30873;53.908;27.576;2023-04-27T08:06:45;9.3;7.4;5
45112;PMS5003;30873;53.908;27.576;2023-04-27T08:11:07;8.7;7.5;5.5
45112;PMS5003;30873;53.908;27.576;2023-04-27T08:16:47;11.8;9.9;6
45112;PMS5003;30873;53.908;27.576;2023-04-27T08:21:19;8.7;7.3;5.2
45112;PMS5003;30873;53.908;27.576;2023-04-27T08:26:57;7.4;6.3;4.4
45112;PMS5003;30873;53.908;27.576;2023-04-27T08:31:43;8.2;7.9;5.1
45112;PMS5003;30873;53.908;27.576;2023-04-27T08:36:57;6.2;6.1;3.3
45112;PMS5003;30873;53.908;27.576;2023-04-27T08:41:07;8.6;7.7;5.3
45112;PMS5003;30873;53.908;27.576;2023-04-27T08:46:43;9.8;7.7;5.3
45112;PMS5003;30873;53.908;27.576;2023-04-27T08:51:07;8.1;7.1;5.1
45112;PMS5003;30873;53.908;27.576;2023-04-27T08:56:35;7.9;6.8;4.1
45112;PMS5003;30873;53.908;27.576;2023-04-27T09:01:57;7.5;6.7;4.3
45112;PMS5003;30873;53.908;27.576;2023-04-27T09:11:45;18;18;14
45112;PMS5003;30873;53.908;27.576;2023-04-27T09:16:33;11;11;5
45112;PMS5003;30873;53.908;27.576;2023-04-27T09:26:48;12.8;12;10
45112;PMS5003;30873;53.908;27.576;2023-04-27T09:31:33;5.5;5;3
45112;PMS5003;30873;53.908;27.576;2023-04-27T09:41:43;7;5.6;3.2
45112;PMS5003;30873;53.908;27.576;2023-04-27T09:46:57;9;7.1;5.2
45112;PMS5003;30873;53.908;27.576;2023-04-27T09:51:27;5.1;4.5;3
45112;PMS5003;30873;53.908;27.576;2023-04-27T09:56:33;4.9;4.6;2.9
45112;PMS5003;30873;53.908;27.576;2023-04-27T10:01:59;7;6.3;3.7
45112;PMS5003;30873;53.908;27.576;2023-04-27T10:06:59;6.7;6.1;4.7
45112;PMS5003;30873;53.908;27.576;2023-04-27T10:11:47;8.3;6.2;4
45112;PMS5003;30873;53.908;27.576;2023-04-27T10:16:17;7;5.7;3.6
45112;PMS5003;30873;53.908;27.576;2023-04-27T10:21:57;6.6;6.2;4
45112;PMS5003;30873;53.908;27.576;2023-04-27T10:26:45;8.1;7.3;4.8
45112;PMS5003;30873;53.908;27.576;2023-04-27T10:31:25;6.7;6;4.3
45112;PMS5003;30873;53.908;27.576;2023-04-27T10:36:33;6.2;5.1;3.8
45112;PMS5003;30873;53.908;27.576;2023-04-27T10:41:48;7;6.5;4.8
45112;PMS5003;30873;53.908;27.576;2023-04-27T10:46:31;9;8.8;6.4
45112;PMS5003;30873;53.908;27.576;2023-04-27T10:51:07;9.1;7.7;5.7
45112;PMS5003;30873;53.908;27.576;2023-04-27T10:57:01;7.1;6;4
45112;PMS5003;30873;53.908;27.576;2023-04-27T11:01:22;6.9;6;4.1
45112;PMS5003;30873;53.908;27.576;2023-04-27T11:06:31;6.8;5.8;4
45112;PMS5003;30873;53.908;27.576;2023-04-27T11:11:43;7.7;6.3;4.8
45112;PMS5003;30873;53.908;27.576;2023-04-27T11:16:19;9;7.5;5.7
45112;PMS5003;30873;53.908;27.576;2023-04-27T11:21:09;8.1;7.3;5
45112;PMS5003;30873;53.908;27.576;2023-04-27T11:26:20;12.4;10;7
45112;PMS5003;30873;53.908;27.576;2023-04-27T11:31:57;10.4;8.8;6.2
45112;PMS5003;30873;53.908;27.576;2023-04-27T11:36:43;7;6;4
45112;PMS5003;30873;53.908;27.576;2023-04-27T11:42:13;7.1;6.1;4
45112;PMS5003;30873;53.908;27.576;2023-04-27T11:46:29;6.3;5.4;3.8
45112;PMS5003;30873;53.908;27.576;2023-04-27T11:51:55;8.1;7.1;5
45112;PMS5003;30873;53.908;27.576;2023-04-27T11:56:47;7.3;6.6;4.4
45112;PMS5003;30873;53.908;27.576;2023-04-27T12:01:41;6.5;5.5;3.8
45112;PMS5003;30873;53.908;27.576;2023-04-27T12:06:43;7.8;7;5.6
45112;PMS5003;30873;53.908;27.576;2023-04-27T12:11:07;7.8;6.3;4.5
45112;PMS5003;30873;53.908;27.576;2023-04-27T12:16:39;7.7;6.7;4.6
45112;PMS5003;30873;53.908;27.576;2023-04-27T12:21:31;5.6;4.9;3.2
45112;PMS5003;30873;53.908;27.576;2023-04-27T12:26:07;4.6;4.1;2.7
45112;PMS5003;30873;53.908;27.576;2023-04-27T12:31:59;8.9;7.8;6.6
45112;PMS5003;30873;53.908;27.576;2023-04-27T12:36:55;6.2;4.8;3.1
45112;PMS5003;30873;53.908;27.576;2023-04-27T12:41:55;3.8;3.1;2
45112;PMS5003;30873;53.908;27.576;2023-04-27T12:46:29;4.5;3.6;1.9
45112;PMS5003;30873;53.908;27.576;2023-04-27T12:51:45;5.7;4.7;3.3
45112;PMS5003;30873;53.908;27.576;2023-04-27T12:56:19;4.9;4.7;3
45112;PMS5003;30873;53.908;27.576;2023-04-27T13:01:32;5;4.5;2.7
45112;PMS5003;30873;53.908;27.576;2023-04-27T13:06:57;4.9;4;2.6
45112;PMS5003;30873;53.908;27.576;2023-04-27T13:11:57;3.8;3.2;2.4
45112;PMS5003;30873;53.908;27.576;2023-04-27T13:16:19;6.4;5.8;4.8
45112;PMS5003;30873;53.908;27.576;2023-04-27T13:21:27;6.3;5;3.7
45112;PMS5003;30873;53.908;27.576;2023-04-27T13:26:41;7.3;6.8;4.2
45112;PMS5003;30873;53.908;27.576;2023-04-27T13:31:21;6.6;6.3;3.7
45112;PMS5003;30873;53.908;27.576;2023-04-27T13:36:07;7.1;5.6;3.6
45112;PMS5003;30873;53.908;27.576;2023-04-27T13:41:29;4.2;3.6;2.6
45112;PMS5003;30873;53.908;27.576;2023-04-27T13:46:57;4.4;3.8;2.4
45112;PMS5003;30873;53.908;27.576;2023-04-27T13:51:07;5;4.3;2.7
45112;PMS5003;30873;53.908;27.576;2023-04-27T13:56:07;6.2;5.6;3.1
45112;PMS5003;30873;53.908;27.576;2023-04-27T14:01:55;5;4.3;2.8
45112;PMS5003;30873;53.908;27.576;2023-04-27T14:06:17;5.3;4.3;2.5
45112;PMS5003;30873;53.908;27.576;2023-04-27T14:11:31;3.5;2.7;1.7
45112;PMS5003;30873;53.908;27.576;2023-04-27T14:16:31;2.9;2.5;1.5
45112;PMS5003;30873;53.908;27.576;2023-04-27T14:21:55;3.4;3;2
45112;PMS5003;30873;53.908;27.576;2023-04-27T14:26:33;5.6;4.8;2.7
45112;PMS5003;30873;53.908;27.576;2023-04-27T14:31:31;4.1;3.6;1.9
45112;PMS5003;30873;53.908;27.576;2023-04-27T14:36:57;3.4;3;1.8
45112;PMS5003;30873;53.908;27.576;2023-04-27T14:41:41;8.3;8.2;7.2
45112;PMS5003;30873;53.908;27.576;2023-04-27T14:46:57;17;14.8;12.7
45112;PMS5003;30873;53.908;27.576;2023-04-27T14:51:29;5.8;5.6;4.4
45112;PMS5003;30873;53.908;27.576;2023-04-27T14:56:59;5.9;4.3;2.8
45112;PMS5003;30873;53.908;27.576;2023-04-27T15:01:07;5.4;4.2;2.7
45112;PMS5003;30873;53.908;27.576;2023-04-27T15:06:45;4.4;3.6;2
45112;PMS5003;30873;53.908;27.576;2023-04-27T15:11:31;3.8;3.2;1.7
45112;PMS5003;30873;53.908;27.576;2023-04-27T15:16:17;4.3;4;2.3
45112;PMS5003;30873;53.908;27.576;2023-04-27T15:21:43;3.2;3;2.1
45112;PMS5003;30873;53.908;27.576;2023-04-27T15:26:19;5.1;4.2;2.2
45112;PMS5003;30873;53.908;27.576;2023-04-27T15:31:07;3.8;3.5;2.2
45112;PMS5003;30873;53.908;27.576;2023-04-27T15:36:59;5.4;3.8;2.4
45112;PMS5003;30873;53.908;27.576;2023-04-27T15:41:57;5;4;2.6
45112;PMS5003;30873;53.908;27.576;2023-04-27T15:46:17;5.5;4.9;3.5
45112;PMS5003;30873;53.908;27.576;2023-04-27T15:51:43;6.1;5.4;4
45112;PMS5003;30873;53.908;27.576;2023-04-27T15:56:45;7.6;6.4;4.3
45112;PMS5003;30873;53.908;27.576;2023-04-27T16:01:19;5.4;4.2;2.8
45112;PMS5003;30873;53.908;27.576;2023-04-27T16:06:19;3.6;3.4;1.8
45112;PMS5003;30873;53.908;27.576;2023-04-27T16:11:45;3.4;2.8;1.7
45112;PMS5003;30873;53.908;27.576;2023-04-27T16:16:59;3.8;3.2;2.6
45112;PMS5003;30873;53.908;27.576;2023-04-27T16:21:59;3.5;3.3;2.4
45112;PMS5003;30873;53.908;27.576;2023-04-27T16:26:31;7.1;6.3;5.2
45112;PMS5003;30873;53.908;27.576;2023-04-27T16:31:59;6.9;5.7;4.4
45112;PMS5003;30873;53.908;27.576;2023-04-27T16:36:47;3.9;2.7;1.8
45112;PMS5003;30873;53.908;27.576;2023-04-27T16:41:31;3.7;3.1;2
45112;PMS5003;30873;53.908;27.576;2023-04-27T16:46:17;3.4;3;2
45112;PMS5003;30873;53.908;27.576;2023-04-27T16:51:43;4.1;3.7;2.3
45112;PMS5003;30873;53.908;27.576;2023-04-27T16:56:23;4.5;3.4;1.8
45112;PMS5003;30873;53.908;27.576;2023-04-27T17:01:45;4.6;3.8;2.1
45112;PMS5003;30873;53.908;27.576;2023-04-27T17:06:43;3.4;2.8;1.9
45112;PMS5003;30873;53.908;27.576;2023-04-27T17:11:07;4.4;3.7;2.1
45112;PMS5003;30873;53.908;27.576;2023-04-27T17:16:59;5.5;4.8;3
45112;PMS5003;30873;53.908;27.576;2023-04-27T17:21:45;5.4;4.3;2.7
45112;PMS5003;30873;53.908;27.576;2023-04-27T17:26:19;4.7;3.4;1.8
45112;PMS5003;30873;53.908;27.576;2023-04-27T17:31:45;4.2;3.4;2
45112;PMS5003;30873;53.908;27.576;2023-04-27T17:36:43;5.1;3.4;2.3
45112;PMS5003;30873;53.908;27.576;2023-04-27T17:41:59;4;3.2;2.1
45112;PMS5003;30873;53.908;27.576;2023-04-27T17:46:31;3.6;2.6;1.9
45112;PMS5003;30873;53.908;27.576;2023-04-27T17:51:59;5.6;4.1;2.1
45112;PMS5003;30873;53.908;27.576;2023-04-27T17:56:19;5.2;4.2;2.7
45112;PMS5003;30873;53.908;27.576;2023-04-27T18:02:01;4.9;4.3;2.7
45112;PMS5003;30873;53.908;27.576;2023-04-27T18:06:33;5.4;4.7;3.1
45112;PMS5003;30873;53.908;27.576;2023-04-27T18:11:45;4.1;4;2.4
45112;PMS5003;30873;53.908;27.576;2023-04-27T18:16:33;6.8;6;3.4
45112;PMS5003;30873;53.908;27.576;2023-04-27T18:21:45;7.1;5.9;3.4
45112;PMS5003;30873;53.908;27.576;2023-04-27T18:26:45;5.7;5.5;3.5
45112;PMS5003;30873;53.908;27.576;2023-04-27T18:31:12;5;4.7;2.8
45112;PMS5003;30873;53.908;27.576;2023-04-27T18:36:07;7.1;6.7;4.4
45112;PMS5003;30873;53.908;27.576;2023-04-27T18:42:01;8.1;7.2;4.7
45112;PMS5003;30873;53.908;27.576;2023-04-27T18:47:01;8.2;6.9;4.4
45112;PMS5003;30873;53.908;27.576;2023-04-27T18:51:07;8.4;7.3;4.8
45112;PMS5003;30873;53.908;27.576;2023-04-27T18:56:45;8.9;7.4;4.8
45112;PMS5003;30873;53.908;27.576;2023-04-27T19:01:49;10;9.3;6.3
45112;PMS5003;30873;53.908;27.576;2023-04-27T19:06:21;8.3;6.5;4.4
45112;PMS5003;30873;53.908;27.576;2023-04-27T19:11:45;8.4;7.3;4.8
45112;PMS5003;30873;53.908;27.576;2023-04-27T19:16:45;8.6;7.4;4.7
45112;PMS5003;30873;53.908;27.576;2023-04-27T19:22:01;8.1;6.1;4.4
45112;PMS5003;30873;53.908;27.576;2023-04-27T19:27:01;8.3;6.1;4.1
45112;PMS5003;30873;53.908;27.576;2023-04-27T19:31:29;7.6;6.5;4.3
45112;PMS5003;30873;53.908;27.576;2023-04-27T19:36:57;8.7;7.3;4.9
45112;PMS5003;30873;53.908;27.576;2023-04-27T19:41:45;9.1;6.8;4.8
45112;PMS5003;30873;53.908;27.576;2023-04-27T19:46:17;6.9;6.1;4.3
45112;PMS5003;30873;53.908;27.576;2023-04-27T19:51:27;8.4;7.2;4.7
45112;PMS5003;30873;53.908;27.576;2023-04-27T19:56:15;9.4;8.3;5.2
45112;PMS5003;30873;53.908;27.576;2023-04-27T20:01:19;8;6.9;4.4
45112;PMS5003;30873;53.908;27.576;2023-04-27T20:06:43;7.8;6.3;4.6
45112;PMS5003;30873;53.908;27.576;2023-04-27T20:11:41;8.4;7.2;4.5
45112;PMS5003;30873;53.908;27.576;2023-04-27T20:16:17;7.9;6.4;4.1
45112;PMS5003;30873;53.908;27.576;2023-04-27T20:21:59;6.6;5.9;3.8
45112;PMS5003;30873;53.908;27.576;2023-04-27T20:26:29;7.5;6.5;4.3
45112;PMS5003;30873;53.908;27.576;2023-04-27T20:31:07;7.2;6.6;4.6
45112;PMS5003;30873;53.908;27.576;2023-04-27T20:36:45;8.7;7.6;5
45112;PMS5003;30873;53.908;27.576;2023-04-27T20:41:07;8.1;8.1;5.9
45112;PMS5003;30873;53.908;27.576;2023-04-27T20:46:08;11;10.6;8.2
45112;PMS5003;30873;53.908;27.576;2023-04-27T20:51:29;14.8;14.2;11.9
45112;PMS5003;30873;53.908;27.576;2023-04-27T20:56:57;15.4;14.2;11.8
45112;PMS5003;30873;53.908;27.576;2023-04-27T21:01:07;14;12.8;10.7
45112;PMS5003;30873;53.908;27.576;2023-04-27T21:06:31;5.8;5.6;3.6
45112;PMS5003;30873;53.908;27.576;2023-04-27T21:16:59;8;7;3.3
45112;PMS5003;30873;53.908;27.576;2023-04-27T21:21:31;8;7;2
45112;PMS5003;30873;53.908;27.576;2023-04-27T21:31:59;4.8;4.4;3
45112;PMS5003;30873;53.908;27.576;2023-04-27T21:36:47;6.3;4.8;3
45112;PMS5003;30873;53.908;27.576;2023-04-27T21:41:07;5.8;4.8;2.4
45112;PMS5003;30873;53.908;27.576;2023-04-27T21:46:27;5;4.4;2.2
45112;PMS5003;30873;53.908;27.576;2023-04-27T21:51:59;5.2;4.4;2.7
45112;PMS5003;30873;53.908;27.576;2023-04-27T21:56:07;5.9;4.5;2.2
45112;PMS5003;30873;53.908;27.576;2023-04-27T22:01:27;5.6;4.6;2.7
45112;PMS5003;30873;53.908;27.576;2023-04-27T22:06:57;5.7;4.2;2.8
45112;PMS5003;30873;53.908;27.576;2023-04-27T22:11:07;6.2;5.2;3.4
45112;PMS5003;30873;53.908;27.576;2023-04-27T22:16:31;5.7;4.7;2.5
45112;PMS5003;30873;53.908;27.576;2023-04-27T22:21:43;6.1;5.2;3
45112;PMS5003;30873;53.908;27.576;2023-04-27T22:26:07;6.5;5.3;2.9
45112;PMS5003;30873;53.908;27.576;2023-04-27T22:31:47;6.8;5.1;2.8
45112;PMS5003;30873;53.908;27.576;2023-04-27T22:36:19;6.8;5.5;3.3
45112;PMS5003;30873;53.908;27.576;2023-04-27T22:41:59;5.3;4.8;3.1
45112;PMS5003;30873;53.908;27.576;2023-04-27T22:46:43;6.2;5.5;3.7
45112;PMS5003;30873;53.908;27.576;2023-04-27T22:51:59;6;5.2;2.9
45112;PMS5003;30873;53.908;27.576;2023-04-27T22:56:07;6.7;5.6;3
45112;PMS5003;30873;53.908;27.576;2023-04-27T23:01:59;5.6;4.5;3.3
45112;PMS5003;30873;53.908;27.576;2023-04-27T23:06:17;6;4.9;2.8
45112;PMS5003;30873;53.908;27.576;2023-04-27T23:11:43;5.1;4.8;2.8
45112;PMS5003;30873;53.908;27.576;2023-04-27T23:16:31;6.9;5.3;3.2
45112;PMS5003;30873;53.908;27.576;2023-04-27T23:21:07;6;5.3;3.4
45112;PMS5003;30873;53.908;27.576;2023-04-27T23:26:41;5.4;5.1;3.2
45112;PMS5003;30873;53.908;27.576;2023-04-27T23:31:15;6.1;5.6;3.5
45112;PMS5003;30873;53.908;27.576;2023-04-27T23:36:25;5.8;5.5;3.6
45112;PMS5003;30873;53.908;27.576;2023-04-27T23:41:55;6.6;5.4;3.5
45112;PMS5003;30873;53.908;27.576;2023-04-27T23:46:55;7.4;5.7;3.7
45112;PMS5003;30873;53.908;27.576;2023-04-27T23:51:29;6.5;5.6;4
45112;PMS5003;30873;53.908;27.576;2023-04-27T23:56:41;6.5;5.5;3.9
